| time (UTC) | temp F | wind direction | speed MPH | gust MPH | rain 1hr in | rain 24hr in | rain mn in | humidity % | barometer mb |
| 20260510041329 | 61 | 129 | 2.0 | 3.0 | 0.00 | 0.00 | 0.00 | 78 | 1010.8 |
| 20260510040826 | 62 | 114 | 2.0 | 3.0 | 0.00 | 0.00 | 0.00 | 78 | 1010.5 |
| 20260510040323 | 62 | 107 | 2.0 | 2.0 | 0.00 | 0.00 | 0.00 | 78 | 1010.7 |
| 20260510035818 | 62 | 118 | 3.0 | 4.0 | 0.00 | 0.00 | 0.00 | 78 | 1010.5 |
| 20260510035314 | 62 | 103 | 2.0 | 2.0 | 0.00 | 0.00 | 0.00 | 78 | 1010.8 |
| 20260510034810 | 62 | 149 | 1.0 | 3.0 | 0.00 | 0.00 | 0.00 | 78 | 1010.5 |
| 20260510034308 | 62 | 71 | 3.0 | 3.0 | 0.00 | 0.00 | 0.00 | 78 | 1010.7 |
| 20260510033804 | 62 | 98 | 2.0 | 2.0 | 0.00 | 0.00 | 0.00 | 77 | 1010.7 |
| 20260510033301 | 62 | 107 | 2.0 | 2.0 | 0.00 | 0.00 | 0.00 | 77 | 1010.7 |
| 20260510032757 | 62 | 106 | 2.0 | 4.0 | 0.00 | 0.00 | 0.00 | 77 | 1010.7 |
| 20260510032254 | 62 | 110 | 1.0 | 3.0 | 0.00 | 0.00 | 0.00 | 77 | 1010.7 |
| 20260510031750 | 62 | 59 | 2.0 | 3.0 | 0.00 | 0.00 | 0.00 | 76 | 1010.7 |
| 20260510031245 | 62 | 81 | 1.0 | 2.0 | 0.00 | 0.00 | 0.00 | 76 | 1010.7 |
| 20260510030745 | 62 | 112 | 1.0 | 2.0 | 0.00 | 0.00 | 0.00 | 76 | 1010.7 |
| 20260510030242 | 62 | 105 | 2.0 | 3.0 | 0.00 | 0.00 | 0.00 | 76 | 1010.6 |
| 20260510025739 | 62 | 91 | 2.0 | 3.0 | 0.00 | 0.00 | 0.00 | 76 | 1010.4 |
| 20260510025237 | 62 | 102 | 2.0 | 3.0 | 0.00 | 0.00 | 0.00 | 75 | 1010.4 |
| 20260510024733 | 62 | 88 | 2.0 | 3.0 | 0.00 | 0.00 | 0.00 | 75 | 1010.2 |
| 20260510024230 | 62 | 104 | 2.0 | 3.0 | 0.00 | 0.00 | 0.00 | 75 | 1010.3 |
| 20260510023726 | 63 | 92 | 2.0 | 2.0 | 0.00 | 0.00 | 0.00 | 75 | 1010.1 |
| 20260510023223 | 63 | 95 | 2.0 | 2.0 | 0.00 | 0.00 | 0.00 | 75 | 1010.1 |
| 20260510022719 | 63 | 104 | 1.0 | 2.0 | 0.00 | 0.00 | 0.00 | 75 | 1010.1 |
| 20260510022214 | 63 | 122 | 1.0 | 2.0 | 0.00 | 0.00 | 0.00 | 73 | 1010.0 |
| 20260510021709 | 63 | 82 | 2.0 | 3.0 | 0.00 | 0.00 | 0.00 | 73 | 1009.9 |
| 20260510021207 | 63 | 96 | 1.0 | 3.0 | 0.00 | 0.00 | 0.00 | 73 | 1010.0 |
| 20260510020702 | 63 | 112 | 2.0 | 3.0 | 0.00 | 0.00 | 0.00 | 73 | 1009.8 |
| 20260510020202 | 64 | 95 | 2.0 | 2.0 | 0.00 | 0.00 | 0.00 | 72 | 1009.9 |
| 20260510015658 | 64 | 145 | 4.0 | 6.0 | 0.00 | 0.00 | 0.00 | 72 | 1009.7 |
| 20260510015155 | 64 | 77 | 2.0 | 2.0 | 0.00 | 0.00 | 0.00 | 71 | 1009.8 |
| 20260510014655 | 64 | 80 | 0.0 | 6.0 | 0.00 | 0.00 | 0.00 | 71 | 1009.6 |
| 20260510014154 | 65 | 123 | 1.0 | 3.0 | 0.00 | 0.00 | 0.00 | 70 | 1009.6 |
| 20260510013654 | 65 | 83 | 1.0 | 4.0 | 0.00 | 0.00 | 0.00 | 70 | 1009.5 |
| 20260510013150 | 65 | 94 | 2.0 | 3.0 | 0.00 | 0.00 | 0.00 | 70 | 1009.5 |
| 20260510012649 | 64 | 131 | 1.0 | 2.0 | 0.00 | 0.00 | 0.00 | 70 | 1009.3 |
| 20260510012145 | 64 | 197 | 3.0 | 4.0 | 0.00 | 0.00 | 0.00 | 70 | 1009.2 |
| 20260510011640 | 65 | 102 | 1.0 | 2.0 | 0.00 | 0.00 | 0.00 | 70 | 1009.1 |
| 20260510011136 | 65 | 215 | 2.0 | 2.0 | 0.00 | 0.00 | 0.00 | 69 | 1008.8 |
| 20260510010632 | 65 | 95 | 1.0 | 2.0 | 0.00 | 0.00 | 0.00 | 69 | 1009.0 |
| 20260510010130 | 65 | 208 | 3.0 | 4.0 | 0.00 | 0.00 | 0.00 | 68 | 1009.0 |
| 20260510005625 | 66 | 99 | 0.0 | 2.0 | 0.00 | 0.00 | 0.00 | 67 | 1009.0 |
| 20260510005122 | 66 | 110 | 1.0 | 7.0 | 0.00 | 0.00 | 0.00 | 67 | 1008.9 |
| 20260510004621 | 66 | 109 | 0.0 | 3.0 | 0.00 | 0.00 | 0.00 | 68 | 1008.9 |
| 20260510004118 | 66 | 98 | 2.0 | 3.0 | 0.00 | 0.00 | 0.00 | 67 | 1008.8 |
| 20260510003615 | 66 | 133 | 4.0 | 4.0 | 0.00 | 0.00 | 0.00 | 66 | 1008.8 |
| 20260510003111 | 67 | 118 | 3.0 | 4.0 | 0.00 | 0.00 | 0.00 | 66 | 1008.6 |
| 20260510002606 | 67 | 98 | 2.0 | 3.0 | 0.00 | 0.00 | 0.00 | 65 | 1008.6 |
| 20260510002103 | 68 | 142 | 3.0 | 6.0 | 0.00 | 0.00 | 0.00 | 63 | 1008.4 |
| 20260510001600 | 68 | 161 | 1.0 | 3.0 | 0.00 | 0.00 | 0.00 | 63 | 1008.5 |
| 20260510001059 | 68 | 201 | 2.0 | 6.0 | 0.00 | 0.00 | 0.00 | 62 | 1008.3 |
| 20260510000554 | 68 | 132 | 2.0 | 4.0 | 0.00 | 0.00 | 0.00 | 62 | 1008.4 |
| 20260510000051 | 68 | 85 | 2.0 | 7.0 | 0.00 | 0.00 | 0.00 | 62 | 1008.2 |
| 20260509235547 | 68 | 158 | 1.0 | 4.0 | 0.00 | 0.00 | 0.00 | 62 | 1008.2 |
| 20260509235044 | 69 | 113 | 0.0 | 2.0 | 0.00 | 0.00 | 0.00 | 61 | 1008.1 |
| 20260509234540 | 69 | 146 | 3.0 | 6.0 | 0.00 | 0.00 | 0.00 | 60 | 1008.5 |
| 20260509234038 | 69 | 235 | 1.0 | 3.0 | 0.00 | 0.00 | 0.00 | 61 | 1008.2 |
| 20260509233535 | 69 | 124 | 4.0 | 9.0 | 0.00 | 0.00 | 0.00 | 60 | 1008.1 |
| 20260509233033 | 70 | 147 | 1.0 | 1.0 | 0.00 | 0.00 | 0.00 | 61 | 1008.2 |
| 20260509232529 | 70 | 203 | 3.0 | 6.0 | 0.00 | 0.00 | 0.00 | 58 | 1008.1 |
| 20260509232026 | 70 | 238 | 0.0 | 2.0 | 0.00 | 0.00 | 0.00 | 59 | 1008.1 |
| 20260509231522 | 70 | 230 | 1.0 | 2.0 | 0.00 | 0.00 | 0.00 | 59 | 1008.1 |
| 20260509231020 | 70 | 187 | 2.0 | 3.0 | 0.00 | 0.00 | 0.00 | 58 | 1008.0 |
| 20260509230517 | 71 | 213 | 0.0 | 4.0 | 0.00 | 0.00 | 0.00 | 59 | 1007.9 |
| 20260509230014 | 71 | 249 | 1.0 | 1.0 | 0.00 | 0.00 | 0.00 | 58 | 1008.2 |
| 20260509225509 | 72 | 223 | 0.0 | 3.0 | 0.00 | 0.00 | 0.00 | 55 | 1008.1 |
| 20260509225005 | 72 | 192 | 1.0 | 2.0 | 0.00 | 0.00 | 0.00 | 57 | 1008.1 |
| 20260509224500 | 72 | 239 | 1.0 | 4.0 | 0.00 | 0.00 | 0.00 | 54 | 1008.3 |
| 20260509223957 | 72 | 239 | 4.0 | 6.0 | 0.00 | 0.00 | 0.00 | 55 | 1008.3 |
| 20260509223454 | 72 | 275 | 4.0 | 4.0 | 0.00 | 0.00 | 0.00 | 54 | 1008.3 |
| 20260509222952 | 73 | 219 | 4.0 | 4.0 | 0.00 | 0.00 | 0.00 | 54 | 1008.4 |
| 20260509222447 | 72 | 122 | 2.0 | 3.0 | 0.00 | 0.00 | 0.00 | 57 | 1008.4 |
| 20260509221943 | 72 | 129 | 2.0 | 3.0 | 0.00 | 0.00 | 0.00 | 55 | 1008.3 |
| 20260509221440 | 72 | 199 | 3.0 | 6.0 | 0.00 | 0.00 | 0.00 | 56 | 1008.5 |
| 20260509220935 | 72 | 226 | 4.0 | 4.0 | 0.00 | 0.00 | 0.00 | 55 | 1008.3 |
| 20260509220432 | 72 | 205 | 2.0 | 4.0 | 0.00 | 0.00 | 0.00 | 56 | 1008.4 |
| 20260509215928 | 73 | 336 | 1.0 | 4.0 | 0.00 | 0.00 | 0.00 | 52 | 1008.4 |
| 20260509215423 | 73 | 128 | 0.0 | 8.0 | 0.00 | 0.00 | 0.00 | 53 | 1008.4 |
| 20260509214921 | 73 | 237 | 2.0 | 7.0 | 0.00 | 0.00 | 0.00 | 53 | 1008.5 |
| 20260509214418 | 74 | 251 | 3.0 | 6.0 | 0.00 | 0.00 | 0.00 | 52 | 1008.6 |
| 20260509213915 | 74 | 269 | 2.0 | 6.0 | 0.00 | 0.00 | 0.00 | 55 | 1008.5 |
| 20260509213416 | 73 | 215 | 3.0 | 6.0 | 0.00 | 0.00 | 0.00 | 54 | 1008.6 |
| 20260509212914 | 73 | 208 | 4.0 | 4.0 | 0.00 | 0.00 | 0.00 | 53 | 1008.4 |
| 20260509212411 | 74 | 340 | 4.0 | 9.0 | 0.00 | 0.00 | 0.00 | 56 | 1008.7 |
| 20260509211907 | 73 | 330 | 3.0 | 4.0 | 0.00 | 0.00 | 0.00 | 55 | 1008.5 |
| 20260509211403 | 73 | 244 | 6.0 | 8.0 | 0.00 | 0.00 | 0.00 | 54 | 1008.5 |
| 20260509210859 | 73 | 260 | 3.0 | 6.0 | 0.00 | 0.00 | 0.00 | 55 | 1008.5 |
| 20260509210357 | 72 | 182 | 4.0 | 7.0 | 0.00 | 0.00 | 0.00 | 54 | 1008.6 |
| 20260509205852 | 73 | 244 | 3.0 | 8.0 | 0.00 | 0.00 | 0.00 | 57 | 1008.5 |
| 20260509205346 | 72 | 148 | 0.0 | 9.0 | 0.00 | 0.00 | 0.00 | 57 | 1008.5 |
| 20260509204843 | 72 | 255 | 2.0 | 3.0 | 0.00 | 0.00 | 0.00 | 56 | 1008.5 |
| 20260509204339 | 72 | 251 | 2.0 | 4.0 | 0.00 | 0.00 | 0.00 | 58 | 1008.5 |
| 20260509203836 | 73 | 251 | 4.0 | 6.0 | 0.00 | 0.00 | 0.00 | 56 | 1008.7 |
| 20260509203333 | 72 | 224 | 1.0 | 2.0 | 0.00 | 0.00 | 0.00 | 61 | 1008.8 |
| 20260509202829 | 71 | 257 | 2.0 | 3.0 | 0.00 | 0.00 | 0.00 | 58 | 1008.9 |
| 20260509202326 | 72 | 305 | 3.0 | 4.0 | 0.00 | 0.00 | 0.00 | 57 | 1008.7 |
| 20260509201825 | 72 | 143 | 3.0 | 7.0 | 0.00 | 0.00 | 0.00 | 56 | 1008.8 |
| 20260509201322 | 71 | 216 | 4.0 | 6.0 | 0.00 | 0.00 | 0.00 | 60 | 1008.7 |
| 20260509200818 | 70 | 216 | 2.0 | 2.0 | 0.00 | 0.00 | 0.00 | 58 | 1008.9 |
| 20260509200314 | 69 | 210 | 3.0 | 4.0 | 0.00 | 0.00 | 0.00 | 60 | 1009.1 |
| 20260509195810 | 69 | 212 | 4.0 | 7.0 | 0.00 | 0.00 | 0.00 | 58 | 1009.1 |
| 20260509195306 | 69 | 252 | 2.0 | 6.0 | 0.00 | 0.00 | 0.00 | 60 | 1009.2 |
| 20260509194805 | 69 | 165 | 2.0 | 4.0 | 0.00 | 0.00 | 0.00 | 61 | 1009.2 |
| 20260509194301 | 69 | 172 | 2.0 | 3.0 | 0.00 | 0.00 | 0.00 | 62 | 1009.2 |
| 20260509193758 | 69 | 249 | 1.0 | 6.0 | 0.00 | 0.00 | 0.00 | 60 | 1009.2 |
| 20260509193258 | 70 | 244 | 3.0 | 6.0 | 0.00 | 0.00 | 0.00 | 59 | 1009.1 |
| 20260509192754 | 70 | 244 | 5.0 | 6.0 | 0.00 | 0.00 | 0.00 | 58 | 1009.2 |
| 20260509192250 | 70 | 296 | 3.0 | 6.0 | 0.00 | 0.00 | 0.00 | 58 | 1009.4 |
| 20260509191745 | 71 | 354 | 1.0 | 4.0 | 0.00 | 0.00 | 0.00 | 58 | 1009.3 |
| 20260509191242 | 71 | 241 | 4.0 | 7.0 | 0.00 | 0.00 | 0.00 | 58 | 1009.2 |
| 20260509190738 | 70 | 206 | 4.0 | 7.0 | 0.00 | 0.00 | 0.00 | 58 | 1009.0 |
| 20260509190235 | 69 | 149 | 4.0 | 6.0 | 0.00 | 0.00 | 0.00 | 63 | 1009.1 |
| 20260509185732 | 69 | 94 | 5.0 | 8.0 | 0.00 | 0.00 | 0.00 | 61 | 1009.1 |
| 20260509185228 | 69 | 166 | 1.0 | 7.0 | 0.00 | 0.00 | 0.00 | 63 | 1009.2 |
| 20260509184726 | 69 | 193 | 4.0 | 6.0 | 0.00 | 0.00 | 0.00 | 62 | 1009.1 |
| 20260509184223 | 71 | 187 | 5.0 | 8.0 | 0.00 | 0.00 | 0.00 | 58 | 1009.3 |
| 20260509183720 | 70 | 259 | 2.0 | 7.0 | 0.00 | 0.00 | 0.00 | 59 | 1009.1 |
| 20260509183215 | 70 | 126 | 2.0 | 6.0 | 0.00 | 0.00 | 0.00 | 62 | 1008.9 |
| 20260509182711 | 70 | 245 | 2.0 | 7.0 | 0.00 | 0.00 | 0.00 | 58 | 1009.1 |
| 20260509182209 | 70 | 201 | 5.0 | 7.0 | 0.00 | 0.00 | 0.00 | 59 | 1009.2 |
| 20260509181706 | 68 | 115 | 1.0 | 3.0 | 0.00 | 0.00 | 0.00 | 62 | 1009.1 |
| 20260509181203 | 68 | 69 | 1.0 | 8.0 | 0.00 | 0.00 | 0.00 | 65 | 1009.1 |
| 20260509180700 | 67 | 163 | 5.0 | 6.0 | 0.00 | 0.00 | 0.00 | 66 | 1009.3 |
| 20260509180156 | 67 | 277 | 2.0 | 10.0 | 0.00 | 0.00 | 0.00 | 62 | 1009.0 |
| 20260509175652 | 67 | 114 | 2.0 | 4.0 | 0.00 | 0.00 | 0.00 | 65 | 1009.3 |
| 20260509175149 | 66 | 281 | 1.0 | 6.0 | 0.00 | 0.00 | 0.00 | 67 | 1009.4 |
| 20260509174645 | 66 | 160 | 8.0 | 9.0 | 0.00 | 0.00 | 0.00 | 64 | 1009.5 |
| 20260509174145 | 65 | 201 | 2.0 | 9.0 | 0.00 | 0.00 | 0.00 | 65 | 1009.2 |
| 20260509173642 | 65 | 246 | 5.0 | 7.0 | 0.00 | 0.00 | 0.00 | 64 | 1009.3 |
| 20260509173137 | 65 | 200 | 6.0 | 8.0 | 0.00 | 0.00 | 0.00 | 65 | 1009.5 |
| 20260509172634 | 65 | 144 | 5.0 | 6.0 | 0.00 | 0.00 | 0.00 | 66 | 1009.5 |
| 20260509172130 | 65 | 185 | 4.0 | 7.0 | 0.00 | 0.00 | 0.00 | 63 | 1009.4 |
| 20260509171626 | 64 | 125 | 1.0 | 7.0 | 0.00 | 0.00 | 0.00 | 69 | 1009.5 |
| 20260509171123 | 64 | 269 | 5.0 | 8.0 | 0.00 | 0.00 | 0.00 | 64 | 1009.7 |
| 20260509170619 | 64 | 103 | 3.0 | 11.0 | 0.00 | 0.00 | 0.00 | 65 | 1009.5 |
| 20260509170115 | 63 | 117 | 7.0 | 10.0 | 0.00 | 0.00 | 0.00 | 63 | 1009.4 |
| 20260509165614 | 62 | 231 | 3.0 | 4.0 | 0.00 | 0.00 | 0.00 | 68 | 1009.7 |
| 20260509165110 | 62 | 267 | 3.0 | 6.0 | 0.00 | 0.00 | 0.00 | 71 | 1009.6 |
| 20260509164606 | 61 | 126 | 2.0 | 3.0 | 0.00 | 0.00 | 0.00 | 71 | 1009.7 |
| 20260509164101 | 60 | 106 | 1.0 | 2.0 | 0.00 | 0.00 | 0.00 | 74 | 1009.7 |
| 20260509163600 | 60 | 113 | 2.0 | 3.0 | 0.00 | 0.00 | 0.00 | 76 | 1009.6 |
| 20260509163054 | 60 | 143 | 1.0 | 2.0 | 0.00 | 0.00 | 0.00 | 75 | 1009.8 |
| 20260509162552 | 60 | 112 | 2.0 | 2.0 | 0.00 | 0.00 | 0.00 | 77 | 1009.6 |
| 20260509162048 | 59 | 120 | 1.0 | 2.0 | 0.00 | 0.00 | 0.00 | 73 | 1009.5 |
| 20260509161545 | 59 | 107 | 1.0 | 1.0 | 0.00 | 0.00 | 0.00 | 76 | 1009.7 |
| 20260509161044 | 59 | 102 | 1.0 | 2.0 | 0.00 | 0.00 | 0.00 | 74 | 1009.8 |
| 20260509160541 | 60 | 159 | 2.0 | 2.0 | 0.00 | 0.00 | 0.00 | 72 | 1009.9 |
| 20260509160036 | 60 | 170 | 0.0 | 1.0 | 0.00 | 0.00 | 0.00 | 69 | 1009.7 |
| 20260509155532 | 60 | 274 | 0.0 | 0.0 | 0.00 | 0.00 | 0.00 | 69 | 1009.5 |
| 20260509155029 | 60 | 264 | 0.0 | 1.0 | 0.00 | 0.00 | 0.00 | 70 | 1009.7 |
| 20260509154525 | 60 | 143 | 0.0 | 0.0 | 0.00 | 0.00 | 0.00 | 73 | 1009.6 |
| 20260509154023 | 60 | 144 | 0.0 | 1.0 | 0.00 | 0.00 | 0.00 | 70 | 1009.6 |
| 20260509153520 | 59 | 154 | 0.0 | 0.0 | 0.00 | 0.00 | 0.00 | 72 | 1009.7 |
| 20260509153016 | 59 | 139 | 0.0 | 1.0 | 0.00 | 0.00 | 0.00 | 72 | 1009.3 |
| 20260509152512 | 59 | 249 | 2.0 | 2.0 | 0.00 | 0.00 | 0.00 | 71 | 1009.6 |
| 20260509152009 | 59 | 125 | 0.0 | 1.0 | 0.00 | 0.00 | 0.00 | 74 | 1009.3 |
| 20260509151506 | 59 | 126 | 0.0 | 1.0 | 0.00 | 0.00 | 0.00 | 75 | 1009.3 |
| 20260509151004 | 59 | 121 | 0.0 | 1.0 | 0.00 | 0.00 | 0.00 | 74 | 1009.5 |
| 20260509150501 | 59 | 121 | 0.0 | 1.0 | 0.00 | 0.00 | 0.00 | 75 | 1009.7 |
| 20260509145959 | 59 | 119 | 0.0 | 1.0 | 0.00 | 0.00 | 0.00 | 75 | 1009.5 |
| 20260509145454 | 59 | 114 | 2.0 | 2.0 | 0.00 | 0.00 | 0.00 | 73 | 1009.3 |
| 20260509144949 | 59 | 128 | 0.0 | 1.0 | 0.00 | 0.00 | 0.00 | 74 | 1009.3 |
| 20260509144447 | 59 | 107 | 1.0 | 2.0 | 0.00 | 0.00 | 0.00 | 72 | 1009.4 |
| 20260509143944 | 59 | 124 | 1.0 | 2.0 | 0.00 | 0.00 | 0.00 | 74 | 1009.6 |
| 20260509143441 | 59 | 228 | 2.0 | 2.0 | 0.00 | 0.00 | 0.00 | 72 | 1009.6 |
| 20260509142937 | 59 | 119 | 0.0 | 1.0 | 0.00 | 0.00 | 0.00 | 73 | 1009.4 |
| 20260509142434 | 59 | 114 | 0.0 | 3.0 | 0.00 | 0.00 | 0.00 | 74 | 1009.5 |
| 20260509141929 | 59 | 121 | 2.0 | 4.0 | 0.00 | 0.00 | 0.00 | 76 | 1009.5 |
| 20260509141426 | 59 | 165 | 1.0 | 1.0 | 0.00 | 0.00 | 0.00 | 74 | 1009.4 |
| 20260509140923 | 59 | 94 | 2.0 | 3.0 | 0.00 | 0.00 | 0.00 | 73 | 1009.2 |
| 20260509140419 | 59 | 218 | 1.0 | 3.0 | 0.00 | 0.00 | 0.00 | 75 | 1009.4 |
| 20260509135918 | 60 | 141 | 2.0 | 4.0 | 0.00 | 0.00 | 0.00 | 76 | 1009.4 |
| 20260509135415 | 60 | 229 | 1.0 | 3.0 | 0.00 | 0.00 | 0.00 | 76 | 1009.1 |
| 20260509134912 | 59 | 89 | 0.0 | 1.0 | 0.00 | 0.00 | 0.00 | 78 | 1008.9 |
| 20260509134410 | 58 | 116 | 0.0 | 1.0 | 0.00 | 0.00 | 0.00 | 82 | 1009.0 |
| 20260509133907 | 58 | 211 | 1.0 | 2.0 | 0.00 | 0.00 | 0.00 | 83 | 1009.0 |
| 20260509133403 | 58 | 224 | 0.0 | 0.0 | 0.00 | 0.00 | 0.00 | 86 | 1008.9 |
| 20260509132902 | 57 | 224 | 0.0 | 1.0 | 0.00 | 0.00 | 0.00 | 86 | 1008.8 |
| 20260509132359 | 57 | 224 | 0.0 | 1.0 | 0.00 | 0.00 | 0.00 | 85 | 1009.1 |
| 20260509131857 | 57 | 224 | 0.0 | 1.0 | 0.00 | 0.00 | 0.00 | 84 | 1009.5 |
| 20260509131353 | 57 | 224 | 0.0 | 0.0 | 0.00 | 0.00 | 0.00 | 85 | 1009.3 |
| 20260509130850 | 57 | 225 | 0.0 | 0.0 | 0.00 | 0.00 | 0.00 | 85 | 1009.5 |
| 20260509130345 | 56 | 224 | 0.0 | 1.0 | 0.00 | 0.00 | 0.00 | 85 | 1009.6 |
| 20260509125842 | 56 | 228 | 1.0 | 2.0 | 0.00 | 0.00 | 0.00 | 86 | 1009.6 |
| 20260509125339 | 56 | 215 | 2.0 | 2.0 | 0.00 | 0.00 | 0.00 | 85 | 1009.3 |
| 20260509124835 | 55 | 220 | 2.0 | 2.0 | 0.00 | 0.00 | 0.00 | 86 | 1009.2 |
| 20260509124332 | 55 | 213 | 0.0 | 1.0 | 0.00 | 0.00 | 0.00 | 89 | 1009.4 |
| 20260509123830 | 55 | 333 | 0.0 | 1.0 | 0.00 | 0.00 | 0.00 | 89 | 1009.5 |
| 20260509123327 | 54 | 335 | 1.0 | 2.0 | 0.00 | 0.00 | 0.00 | 90 | 1009.6 |
| 20260509122822 | 54 | 355 | 0.0 | 1.0 | 0.00 | 0.00 | 0.00 | 91 | 1009.5 |
| 20260509122320 | 54 | 353 | 0.0 | 0.0 | 0.00 | 0.00 | 0.00 | 91 | 1009.7 |
| 20260509121817 | 54 | 1 | 1.0 | 2.0 | 0.00 | 0.00 | 0.00 | 91 | 1009.5 |
| 20260509121314 | 54 | 306 | 1.0 | 1.0 | 0.00 | 0.00 | 0.00 | 92 | 1009.4 |
| 20260509120812 | 54 | 306 | 0.0 | 0.0 | 0.00 | 0.00 | 0.00 | 92 | 1009.5 |
| 20260509120309 | 54 | 305 | 0.0 | 0.0 | 0.00 | 0.00 | 0.00 | 92 | 1009.5 |
| 20260509115808 | 54 | 307 | 0.0 | 0.0 | 0.00 | 0.00 | 0.00 | 92 | 1009.5 |
| 20260509115307 | 54 | 307 | 0.0 | 1.0 | 0.00 | 0.00 | 0.00 | 92 | 1009.5 |
| 20260509114802 | 54 | 269 | 0.0 | 1.0 | 0.00 | 0.00 | 0.00 | 92 | 1009.5 |
| 20260509114301 | 54 | 259 | 1.0 | 2.0 | 0.00 | 0.00 | 0.00 | 92 | 1009.5 |
| 20260509113759 | 53 | 196 | 0.0 | 1.0 | 0.00 | 0.00 | 0.00 | 92 | 1009.4 |
| 20260509113256 | 53 | 195 | 1.0 | 1.0 | 0.00 | 0.00 | 0.00 | 92 | 1009.3 |
| 20260509112753 | 53 | 312 | 1.0 | 1.0 | 0.00 | 0.00 | 0.00 | 92 | 1009.4 |
| 20260509112250 | 53 | 312 | 0.0 | 1.0 | 0.00 | 0.00 | 0.00 | 92 | 1009.3 |
| 20260509111747 | 53 | 312 | 0.0 | 0.0 | 0.00 | 0.00 | 0.00 | 92 | 1009.3 |
| 20260509111244 | 53 | 287 | 0.0 | 1.0 | 0.00 | 0.00 | 0.00 | 92 | 1009.3 |
| 20260509110741 | 53 | 315 | 1.0 | 3.0 | 0.00 | 0.00 | 0.00 | 93 | 1009.5 |
| 20260509110238 | 53 | 299 | 2.0 | 4.0 | 0.00 | 0.00 | 0.00 | 92 | 1009.6 |
| 20260509105736 | 53 | 335 | 2.0 | 3.0 | 0.00 | 0.00 | 0.00 | 92 | 1009.5 |
| 20260509105233 | 53 | 319 | 2.0 | 2.0 | 0.00 | 0.00 | 0.00 | 92 | 1009.4 |
| 20260509104730 | 53 | 314 | 0.0 | 1.0 | 0.00 | 0.00 | 0.00 | 92 | 1009.1 |
| 20260509104227 | 52 | 244 | 0.0 | 1.0 | 0.00 | 0.00 | 0.00 | 92 | 1009.0 |
| 20260509103725 | 53 | 243 | 0.0 | 0.0 | 0.00 | 0.00 | 0.00 | 91 | 1008.9 |
| 20260509103222 | 53 | 244 | 0.0 | 1.0 | 0.00 | 0.00 | 0.00 | 91 | 1009.1 |
| 20260509102720 | 53 | 337 | 1.0 | 1.0 | 0.00 | 0.00 | 0.00 | 91 | 1009.1 |
| 20260509102217 | 53 | 334 | 0.0 | 0.0 | 0.00 | 0.00 | 0.00 | 91 | 1009.3 |
| 20260509101713 | 53 | 335 | 1.0 | 1.0 | 0.00 | 0.00 | 0.00 | 91 | 1009.1 |
| 20260509101209 | 53 | 335 | 0.0 | 1.0 | 0.00 | 0.00 | 0.00 | 90 | 1009.0 |
| 20260509100707 | 53 | 352 | 1.0 | 2.0 | 0.00 | 0.00 | 0.00 | 90 | 1009.1 |
| 20260509100204 | 53 | 60 | 0.0 | 0.0 | 0.00 | 0.00 | 0.00 | 89 | 1008.9 |
| 20260509095701 | 53 | 60 | 0.0 | 0.0 | 0.00 | 0.00 | 0.00 | 89 | 1008.8 |
| 20260509095158 | 53 | 60 | 1.0 | 1.0 | 0.00 | 0.00 | 0.00 | 90 | 1008.9 |
| 20260509094654 | 53 | 85 | 1.0 | 1.0 | 0.00 | 0.00 | 0.00 | 90 | 1008.9 |
| 20260509094151 | 53 | 85 | 0.0 | 0.0 | 0.00 | 0.00 | 0.00 | 90 | 1009.1 |
| 20260509093650 | 53 | 86 | 1.0 | 2.0 | 0.00 | 0.00 | 0.00 | 90 | 1008.8 |
| 20260509093147 | 52 | 117 | 1.0 | 1.0 | 0.00 | 0.00 | 0.00 | 89 | 1009.0 |
| 20260509092645 | 53 | 117 | 0.0 | 0.0 | 0.00 | 0.00 | 0.00 | 89 | 1009.0 |
| 20260509092143 | 53 | 117 | 1.0 | 1.0 | 0.00 | 0.00 | 0.00 | 90 | 1008.8 |
| 20260509091641 | 53 | 118 | 0.0 | 1.0 | 0.00 | 0.00 | 0.00 | 90 | 1008.8 |
| 20260509091136 | 53 | 118 | 0.0 | 1.0 | 0.00 | 0.00 | 0.00 | 90 | 1008.8 |
| 20260509090635 | 53 | 118 | 0.0 | 2.0 | 0.00 | 0.00 | 0.00 | 90 | 1008.9 |
| 20260509090131 | 53 | 315 | 0.0 | 2.0 | 0.00 | 0.00 | 0.00 | 90 | 1009.2 |
| 20260509085629 | 53 | 108 | 0.0 | 0.0 | 0.00 | 0.00 | 0.00 | 90 | 1009.2 |
| 20260509085124 | 53 | 108 | 0.0 | 1.0 | 0.00 | 0.00 | 0.00 | 91 | 1009.1 |
| 20260509084622 | 53 | 108 | 1.0 | 2.0 | 0.00 | 0.00 | 0.00 | 90 | 1008.9 |
| 20260509084119 | 54 | 108 | 0.0 | 0.0 | 0.00 | 0.00 | 0.00 | 89 | 1009.1 |
| 20260509083616 | 54 | 108 | 0.0 | 0.0 | 0.00 | 0.00 | 0.00 | 89 | 1009.1 |
| 20260509083113 | 54 | 19 | 2.0 | 3.0 | 0.00 | 0.00 | 0.00 | 89 | 1009.2 |
| 20260509082610 | 54 | 325 | 3.0 | 4.0 | 0.00 | 0.00 | 0.00 | 88 | 1009.5 |
| 20260509082107 | 54 | 118 | 0.0 | 0.0 | 0.00 | 0.00 | 0.00 | 88 | 1009.3 |
| 20260509081604 | 54 | 118 | 0.0 | 0.0 | 0.00 | 0.00 | 0.00 | 87 | 1009.3 |
| 20260509081101 | 54 | 118 | 0.0 | 0.0 | 0.00 | 0.00 | 0.00 | 86 | 1008.9 |
| 20260509080559 | 54 | 117 | 0.0 | 0.0 | 0.00 | 0.00 | 0.00 | 85 | 1009.1 |
| 20260509080057 | 54 | 117 | 0.0 | 0.0 | 0.00 | 0.00 | 0.00 | 86 | 1009.1 |
| 20260509075555 | 54 | 359 | 0.0 | 0.0 | 0.00 | 0.00 | 0.00 | 86 | 1009.1 |
| 20260509075052 | 54 | 313 | 1.0 | 2.0 | 0.00 | 0.00 | 0.00 | 85 | 1009.4 |
| 20260509074549 | 54 | 89 | 0.0 | 1.0 | 0.00 | 0.00 | 0.00 | 82 | 1009.3 |
| 20260509074045 | 54 | 93 | 2.0 | 3.0 | 0.00 | 0.00 | 0.00 | 84 | 1009.2 |
| 20260509073542 | 54 | 237 | 0.0 | 1.0 | 0.00 | 0.00 | 0.00 | 85 | 1009.5 |
| 20260509073038 | 54 | 132 | 2.0 | 2.0 | 0.00 | 0.00 | 0.00 | 85 | 1009.2 |
| 20260509072535 | 54 | 26 | 0.0 | 1.0 | 0.00 | 0.00 | 0.00 | 85 | 1009.4 |
| 20260509072032 | 54 | 313 | 1.0 | 1.0 | 0.00 | 0.00 | 0.00 | 84 | 1009.5 |
| 20260509071528 | 55 | 79 | 0.0 | 0.0 | 0.00 | 0.00 | 0.00 | 83 | 1009.3 |
| 20260509071026 | 55 | 78 | 0.0 | 0.0 | 0.00 | 0.00 | 0.00 | 82 | 1009.4 |
| 20260509070523 | 55 | 79 | 1.0 | 1.0 | 0.00 | 0.00 | 0.00 | 83 | 1009.5 |
| 20260509070019 | 55 | 79 | 0.0 | 1.0 | 0.00 | 0.00 | 0.00 | 83 | 1009.5 |
| 20260509065515 | 55 | 78 | 0.0 | 0.0 | 0.00 | 0.00 | 0.00 | 83 | 1009.5 |
| 20260509065011 | 55 | 79 | 0.0 | 0.0 | 0.00 | 0.00 | 0.00 | 82 | 1009.5 |
| 20260509064509 | 55 | 79 | 1.0 | 1.0 | 0.00 | 0.00 | 0.00 | 83 | 1009.5 |
| 20260509064007 | 55 | 328 | 0.0 | 1.0 | 0.00 | 0.00 | 0.00 | 84 | 1009.4 |
| 20260509063502 | 55 | 329 | 0.0 | 0.0 | 0.00 | 0.00 | 0.00 | 82 | 1009.2 |
| 20260509062959 | 55 | 355 | 1.0 | 3.0 | 0.00 | 0.00 | 0.00 | 82 | 1009.1 |
| 20260509062456 | 56 | 356 | 2.0 | 2.0 | 0.00 | 0.00 | 0.00 | 80 | 1009.3 |
| 20260509061954 | 56 | 131 | 1.0 | 2.0 | 0.00 | 0.00 | 0.00 | 77 | 1009.3 |
| 20260509061451 | 56 | 98 | 0.0 | 1.0 | 0.00 | 0.00 | 0.00 | 75 | 1009.3 |
| 20260509060948 | 56 | 98 | 0.0 | 1.0 | 0.00 | 0.00 | 0.00 | 77 | 1009.4 |
| 20260509060446 | 56 | 98 | 0.0 | 1.0 | 0.00 | 0.00 | 0.00 | 79 | 1009.4 |
| 20260509055941 | 56 | 99 | 0.0 | 1.0 | 0.00 | 0.00 | 0.00 | 79 | 1009.5 |
| 20260509055436 | 56 | 98 | 0.0 | 1.0 | 0.00 | 0.00 | 0.00 | 79 | 1009.3 |
| 20260509054933 | 55 | 63 | 1.0 | 2.0 | 0.00 | 0.00 | 0.00 | 81 | 1009.3 |
| 20260509054430 | 55 | 115 | 1.0 | 2.0 | 0.00 | 0.00 | 0.00 | 81 | 1009.5 |
| 20260509053928 | 56 | 327 | 1.0 | 2.0 | 0.00 | 0.00 | 0.00 | 82 | 1009.3 |
| 20260509053426 | 56 | 328 | 0.0 | 0.0 | 0.00 | 0.00 | 0.00 | 82 | 1009.3 |
| 20260509052923 | 56 | 327 | 0.0 | 1.0 | 0.00 | 0.00 | 0.00 | 81 | 1009.5 |
| 20260509052420 | 56 | 345 | 1.0 | 1.0 | 0.00 | 0.00 | 0.00 | 76 | 1009.2 |
| 20260509051918 | 56 | 86 | 1.0 | 2.0 | 0.00 | 0.00 | 0.00 | 73 | 1009.4 |
| 20260509051416 | 56 | 86 | 0.0 | 1.0 | 0.00 | 0.00 | 0.00 | 74 | 1009.4 |
| 20260509050913 | 56 | 87 | 0.0 | 1.0 | 0.00 | 0.00 | 0.00 | 78 | 1009.5 |
| 20260509050409 | 56 | 332 | 1.0 | 1.0 | 0.00 | 0.00 | 0.00 | 80 | 1009.4 |
| 20260509045906 | 57 | 332 | 0.0 | 1.0 | 0.00 | 0.00 | 0.00 | 80 | 1009.4 |
| 20260509045403 | 57 | 331 | 0.0 | 0.0 | 0.00 | 0.00 | 0.00 | 80 | 1009.6 |
| 20260509044900 | 57 | 331 | 1.0 | 1.0 | 0.00 | 0.00 | 0.00 | 79 | 1009.6 |
| 20260509044358 | 57 | 331 | 1.0 | 2.0 | 0.00 | 0.00 | 0.00 | 76 | 1009.5 |
| 20260509043855 | 57 | 119 | 1.0 | 2.0 | 0.00 | 0.00 | 0.00 | 74 | 1009.3 |
| 20260509043350 | 58 | 120 | 1.0 | 1.0 | 0.00 | 0.00 | 0.00 | 71 | 1009.4 |
| 20260509042846 | 58 | 120 | 0.0 | 1.0 | 0.00 | 0.00 | 0.00 | 69 | 1009.7 |
| 20260509042343 | 58 | 120 | 0.0 | 0.0 | 0.00 | 0.00 | 0.00 | 66 | 1009.5 |
| 20260509041840 | 58 | 120 | 1.0 | 1.0 | 0.00 | 0.00 | 0.00 | 66 | 1009.6 |
| 20260509041336 | 58 | 120 | 0.0 | 0.0 | 0.00 | 0.00 | 0.00 | 63 | 1009.6 |